sensor_id;sensor_type;location;lat;lon;timestamp;temperature;humidity
40151;DHT22;25866;52.420;10.640;2022-10-14T00:01:03;12.10;99.90
40151;DHT22;25866;52.420;10.640;2022-10-14T00:03:30;12.10;99.90
40151;DHT22;25866;52.420;10.640;2022-10-14T00:05:56;12.10;99.90
40151;DHT22;25866;52.420;10.640;2022-10-14T00:08:23;12.00;99.90
40151;DHT22;25866;52.420;10.640;2022-10-14T00:10:49;12.00;99.90
40151;DHT22;25866;52.420;10.640;2022-10-14T00:13:15;12.00;99.90
40151;DHT22;25866;52.420;10.640;2022-10-14T00:15:41;12.00;99.90
40151;DHT22;25866;52.420;10.640;2022-10-14T00:18:07;12.00;99.90
40151;DHT22;25866;52.420;10.640;2022-10-14T00:20:34;12.00;99.90
40151;DHT22;25866;52.420;10.640;2022-10-14T00:22:59;12.10;99.90
40151;DHT22;25866;52.420;10.640;2022-10-14T00:25:25;12.00;99.90
40151;DHT22;25866;52.420;10.640;2022-10-14T00:27:51;12.00;99.90
40151;DHT22;25866;52.420;10.640;2022-10-14T00:30:17;12.00;99.90
40151;DHT22;25866;52.420;10.640;2022-10-14T00:32:43;12.00;99.90
40151;DHT22;25866;52.420;10.640;2022-10-14T00:35:09;12.00;99.90
40151;DHT22;25866;52.420;10.640;2022-10-14T00:37:35;11.90;99.90
40151;DHT22;25866;52.420;10.640;2022-10-14T00:40:01;11.90;99.90
40151;DHT22;25866;52.420;10.640;2022-10-14T00:42:26;11.90;99.90
40151;DHT22;25866;52.420;10.640;2022-10-14T00:45:00;11.80;99.90
40151;DHT22;25866;52.420;10.640;2022-10-14T00:47:27;11.80;99.90
40151;DHT22;25866;52.420;10.640;2022-10-14T00:49:53;11.80;99.90
40151;DHT22;25866;52.420;10.640;2022-10-14T00:52:21;11.80;99.90
40151;DHT22;25866;52.420;10.640;2022-10-14T00:54:54;11.70;99.90
40151;DHT22;25866;52.420;10.640;2022-10-14T00:57:22;11.70;99.90
40151;DHT22;25866;52.420;10.640;2022-10-14T00:59:50;11.70;99.90
40151;DHT22;25866;52.420;10.640;2022-10-14T01:02:16;11.70;99.90
40151;DHT22;25866;52.420;10.640;2022-10-14T01:04:42;11.70;99.90
40151;DHT22;25866;52.420;10.640;2022-10-14T01:07:29;11.80;99.90
40151;DHT22;25866;52.420;10.640;2022-10-14T01:31:10;12.00;99.90
40151;DHT22;25866;52.420;10.640;2022-10-14T01:33:43;12.00;99.90
40151;DHT22;25866;52.420;10.640;2022-10-14T01:36:31;12.00;99.90
40151;DHT22;25866;52.420;10.640;2022-10-14T01:39:22;12.00;99.90
40151;DHT22;25866;52.420;10.640;2022-10-14T01:42:12;12.00;99.90
40151;DHT22;25866;52.420;10.640;2022-10-14T01:44:42;12.00;99.90
40151;DHT22;25866;52.420;10.640;2022-10-14T01:47:11;12.00;99.90
40151;DHT22;25866;52.420;10.640;2022-10-14T01:49:48;12.00;99.90
40151;DHT22;25866;52.420;10.640;2022-10-14T01:52:19;12.10;99.90
40151;DHT22;25866;52.420;10.640;2022-10-14T01:54:50;12.10;99.90
40151;DHT22;25866;52.420;10.640;2022-10-14T01:57:21;12.10;99.90
40151;DHT22;25866;52.420;10.640;2022-10-14T01:59:48;12.20;99.90
40151;DHT22;25866;52.420;10.640;2022-10-14T02:02:14;12.20;99.90
40151;DHT22;25866;52.420;10.640;2022-10-14T02:04:41;12.20;99.90
40151;DHT22;25866;52.420;10.640;2022-10-14T02:07:31;12.20;99.90
40151;DHT22;25866;52.420;10.640;2022-10-14T02:15:36;12.20;99.90
40151;DHT22;25866;52.420;10.640;2022-10-14T02:18:14;12.20;99.90
40151;DHT22;25866;52.420;10.640;2022-10-14T02:20:59;12.20;99.90
40151;DHT22;25866;52.420;10.640;2022-10-14T02:23:31;12.30;99.90
40151;DHT22;25866;52.420;10.640;2022-10-14T02:26:01;12.30;99.90
40151;DHT22;25866;52.420;10.640;2022-10-14T02:28:28;12.30;99.90
40151;DHT22;25866;52.420;10.640;2022-10-14T02:31:00;12.20;99.90
40151;DHT22;25866;52.420;10.640;2022-10-14T02:33:39;12.20;99.90
40151;DHT22;25866;52.420;10.640;2022-10-14T02:36:11;12.20;99.90
40151;DHT22;25866;52.420;10.640;2022-10-14T02:38:39;12.20;99.90
40151;DHT22;25866;52.420;10.640;2022-10-14T02:41:09;12.20;99.90
40151;DHT22;25866;52.420;10.640;2022-10-14T02:43:37;12.20;99.90
40151;DHT22;25866;52.420;10.640;2022-10-14T02:46:03;12.30;99.90
40151;DHT22;25866;52.420;10.640;2022-10-14T02:48:29;12.30;99.90
40151;DHT22;25866;52.420;10.640;2022-10-14T02:50:55;12.30;99.90
40151;DHT22;25866;52.420;10.640;2022-10-14T02:53:21;12.30;99.90
40151;DHT22;25866;52.420;10.640;2022-10-14T02:55:47;12.40;99.90
40151;DHT22;25866;52.420;10.640;2022-10-14T02:58:13;12.30;99.90
40151;DHT22;25866;52.420;10.640;2022-10-14T03:00:39;12.40;99.90
40151;DHT22;25866;52.420;10.640;2022-10-14T03:03:05;12.40;99.90
40151;DHT22;25866;52.420;10.640;2022-10-14T03:05:30;12.30;99.90
40151;DHT22;25866;52.420;10.640;2022-10-14T03:07:56;12.40;99.90
40151;DHT22;25866;52.420;10.640;2022-10-14T03:10:22;12.40;99.90
40151;DHT22;25866;52.420;10.640;2022-10-14T03:12:47;12.40;99.90
40151;DHT22;25866;52.420;10.640;2022-10-14T03:15:13;12.40;99.90
40151;DHT22;25866;52.420;10.640;2022-10-14T03:17:39;12.40;99.90
40151;DHT22;25866;52.420;10.640;2022-10-14T03:20:05;12.40;99.90
40151;DHT22;25866;52.420;10.640;2022-10-14T03:22:31;12.40;99.90
40151;DHT22;25866;52.420;10.640;2022-10-14T03:24:57;12.40;99.90
40151;DHT22;25866;52.420;10.640;2022-10-14T03:27:23;12.40;99.90
40151;DHT22;25866;52.420;10.640;2022-10-14T03:29:48;12.40;99.90
40151;DHT22;25866;52.420;10.640;2022-10-14T03:32:14;12.40;99.90
40151;DHT22;25866;52.420;10.640;2022-10-14T03:34:40;12.40;99.90
40151;DHT22;25866;52.420;10.640;2022-10-14T03:37:06;12.40;99.90
40151;DHT22;25866;52.420;10.640;2022-10-14T03:39:32;12.40;99.90
40151;DHT22;25866;52.420;10.640;2022-10-14T03:41:58;12.40;99.90
40151;DHT22;25866;52.420;10.640;2022-10-14T03:44:24;12.40;99.90
40151;DHT22;25866;52.420;10.640;2022-10-14T03:46:50;12.40;99.90
40151;DHT22;25866;52.420;10.640;2022-10-14T03:49:16;12.40;99.90
40151;DHT22;25866;52.420;10.640;2022-10-14T03:51:41;12.40;99.90
40151;DHT22;25866;52.420;10.640;2022-10-14T03:54:07;12.40;99.90
40151;DHT22;25866;52.420;10.640;2022-10-14T03:56:33;12.40;99.90
40151;DHT22;25866;52.420;10.640;2022-10-14T03:58:59;12.40;99.90
40151;DHT22;25866;52.420;10.640;2022-10-14T04:01:26;12.40;99.90
40151;DHT22;25866;52.420;10.640;2022-10-14T04:03:51;12.40;99.90
40151;DHT22;25866;52.420;10.640;2022-10-14T04:06:17;12.40;99.90
40151;DHT22;25866;52.420;10.640;2022-10-14T04:08:43;12.40;99.90
40151;DHT22;25866;52.420;10.640;2022-10-14T04:11:09;12.40;99.90
40151;DHT22;25866;52.420;10.640;2022-10-14T04:13:35;12.40;99.90
40151;DHT22;25866;52.420;10.640;2022-10-14T04:16:05;12.40;99.90
40151;DHT22;25866;52.420;10.640;2022-10-14T04:18:31;12.50;99.90
40151;DHT22;25866;52.420;10.640;2022-10-14T04:21:05;12.50;99.90
40151;DHT22;25866;52.420;10.640;2022-10-14T04:23:31;12.50;99.90
40151;DHT22;25866;52.420;10.640;2022-10-14T04:25:57;12.50;99.90
40151;DHT22;25866;52.420;10.640;2022-10-14T04:28:23;12.50;99.90
40151;DHT22;25866;52.420;10.640;2022-10-14T04:30:49;12.50;99.90
40151;DHT22;25866;52.420;10.640;2022-10-14T04:33:15;12.40;99.90
40151;DHT22;25866;52.420;10.640;2022-10-14T04:35:40;12.40;99.90
40151;DHT22;25866;52.420;10.640;2022-10-14T04:38:06;12.40;99.90
40151;DHT22;25866;52.420;10.640;2022-10-14T04:40:32;12.40;99.90
40151;DHT22;25866;52.420;10.640;2022-10-14T04:42:58;12.40;99.90
40151;DHT22;25866;52.420;10.640;2022-10-14T04:45:24;12.40;99.90
40151;DHT22;25866;52.420;10.640;2022-10-14T04:47:50;12.40;99.90
40151;DHT22;25866;52.420;10.640;2022-10-14T04:50:17;12.40;99.90
40151;DHT22;25866;52.420;10.640;2022-10-14T04:52:43;12.40;99.90
40151;DHT22;25866;52.420;10.640;2022-10-14T04:55:08;12.40;99.90
40151;DHT22;25866;52.420;10.640;2022-10-14T04:57:35;12.40;99.90
40151;DHT22;25866;52.420;10.640;2022-10-14T05:00:02;12.40;99.90
40151;DHT22;25866;52.420;10.640;2022-10-14T05:02:28;12.40;99.90
40151;DHT22;25866;52.420;10.640;2022-10-14T05:04:53;12.50;99.90
40151;DHT22;25866;52.420;10.640;2022-10-14T05:07:19;12.40;99.90
40151;DHT22;25866;52.420;10.640;2022-10-14T05:09:46;12.40;99.90
40151;DHT22;25866;52.420;10.640;2022-10-14T05:12:12;12.40;99.90
40151;DHT22;25866;52.420;10.640;2022-10-14T05:14:39;12.40;99.90
40151;DHT22;25866;52.420;10.640;2022-10-14T05:17:04;12.40;99.90
40151;DHT22;25866;52.420;10.640;2022-10-14T05:19:30;12.40;99.90
40151;DHT22;25866;52.420;10.640;2022-10-14T05:21:56;12.40;99.90
40151;DHT22;25866;52.420;10.640;2022-10-14T05:24:22;12.40;99.90
40151;DHT22;25866;52.420;10.640;2022-10-14T05:26:47;12.40;99.90
40151;DHT22;25866;52.420;10.640;2022-10-14T05:29:13;12.40;99.90
40151;DHT22;25866;52.420;10.640;2022-10-14T05:31:39;12.40;99.90
40151;DHT22;25866;52.420;10.640;2022-10-14T05:34:05;12.40;99.90
40151;DHT22;25866;52.420;10.640;2022-10-14T05:36:31;12.40;99.90
40151;DHT22;25866;52.420;10.640;2022-10-14T05:38:56;12.40;99.90
40151;DHT22;25866;52.420;10.640;2022-10-14T05:41:24;12.40;99.90
40151;DHT22;25866;52.420;10.640;2022-10-14T05:43:50;12.40;99.90
40151;DHT22;25866;52.420;10.640;2022-10-14T05:46:15;12.40;99.90
40151;DHT22;25866;52.420;10.640;2022-10-14T05:48:41;12.40;99.90
40151;DHT22;25866;52.420;10.640;2022-10-14T05:51:07;12.40;99.90
40151;DHT22;25866;52.420;10.640;2022-10-14T05:53:34;12.40;99.90
40151;DHT22;25866;52.420;10.640;2022-10-14T05:56:09;12.40;99.90
40151;DHT22;25866;52.420;10.640;2022-10-14T05:58:35;12.40;99.90
40151;DHT22;25866;52.420;10.640;2022-10-14T06:01:02;12.40;99.90
40151;DHT22;25866;52.420;10.640;2022-10-14T06:03:28;12.40;99.90
40151;DHT22;25866;52.420;10.640;2022-10-14T06:05:54;12.30;99.90
40151;DHT22;25866;52.420;10.640;2022-10-14T06:08:21;12.30;99.90
40151;DHT22;25866;52.420;10.640;2022-10-14T06:10:46;12.30;99.90
40151;DHT22;25866;52.420;10.640;2022-10-14T06:13:12;12.30;99.90
40151;DHT22;25866;52.420;10.640;2022-10-14T06:15:38;12.30;99.90
40151;DHT22;25866;52.420;10.640;2022-10-14T06:18:04;12.40;99.90
40151;DHT22;25866;52.420;10.640;2022-10-14T06:20:30;12.40;99.90
40151;DHT22;25866;52.420;10.640;2022-10-14T06:22:58;12.40;99.90
40151;DHT22;25866;52.420;10.640;2022-10-14T06:25:24;12.40;99.90
40151;DHT22;25866;52.420;10.640;2022-10-14T06:27:50;12.40;99.90
40151;DHT22;25866;52.420;10.640;2022-10-14T06:30:16;12.40;99.90
40151;DHT22;25866;52.420;10.640;2022-10-14T06:32:42;12.40;99.90
40151;DHT22;25866;52.420;10.640;2022-10-14T06:35:08;12.50;99.90
40151;DHT22;25866;52.420;10.640;2022-10-14T06:37:34;12.50;99.90
40151;DHT22;25866;52.420;10.640;2022-10-14T06:39:59;12.50;99.90
40151;DHT22;25866;52.420;10.640;2022-10-14T06:42:25;12.50;99.90
40151;DHT22;25866;52.420;10.640;2022-10-14T06:44:51;12.50;99.90
40151;DHT22;25866;52.420;10.640;2022-10-14T06:47:16;12.60;99.90
40151;DHT22;25866;52.420;10.640;2022-10-14T06:49:42;12.60;99.90
40151;DHT22;25866;52.420;10.640;2022-10-14T06:52:08;12.60;99.90
40151;DHT22;25866;52.420;10.640;2022-10-14T06:54:34;12.60;99.90
40151;DHT22;25866;52.420;10.640;2022-10-14T06:56:59;12.60;99.90
40151;DHT22;25866;52.420;10.640;2022-10-14T06:59:25;12.60;99.90
40151;DHT22;25866;52.420;10.640;2022-10-14T07:01:54;12.70;99.90
40151;DHT22;25866;52.420;10.640;2022-10-14T07:04:20;12.70;99.90
40151;DHT22;25866;52.420;10.640;2022-10-14T07:06:46;12.70;99.90
40151;DHT22;25866;52.420;10.640;2022-10-14T07:09:11;12.70;99.90
40151;DHT22;25866;52.420;10.640;2022-10-14T07:11:37;12.80;99.90
40151;DHT22;25866;52.420;10.640;2022-10-14T07:14:03;12.80;99.90
40151;DHT22;25866;52.420;10.640;2022-10-14T07:16:28;12.80;99.90
40151;DHT22;25866;52.420;10.640;2022-10-14T07:18:54;12.80;99.90
40151;DHT22;25866;52.420;10.640;2022-10-14T07:21:20;12.80;99.90
40151;DHT22;25866;52.420;10.640;2022-10-14T07:23:46;12.70;99.90
40151;DHT22;25866;52.420;10.640;2022-10-14T07:26:11;12.70;99.90
40151;DHT22;25866;52.420;10.640;2022-10-14T07:28:37;12.70;99.90
40151;DHT22;25866;52.420;10.640;2022-10-14T07:31:05;12.80;99.90
40151;DHT22;25866;52.420;10.640;2022-10-14T07:33:33;12.90;99.90
40151;DHT22;25866;52.420;10.640;2022-10-14T07:36:08;13.00;99.90
40151;DHT22;25866;52.420;10.640;2022-10-14T07:38:34;13.20;99.90
40151;DHT22;25866;52.420;10.640;2022-10-14T07:41:06;13.30;99.90
40151;DHT22;25866;52.420;10.640;2022-10-14T07:43:33;13.40;99.90
40151;DHT22;25866;52.420;10.640;2022-10-14T07:46:01;13.50;99.90
40151;DHT22;25866;52.420;10.640;2022-10-14T07:48:29;13.50;99.90
40151;DHT22;25866;52.420;10.640;2022-10-14T07:50:55;13.50;99.90
40151;DHT22;25866;52.420;10.640;2022-10-14T07:53:22;13.50;99.90
40151;DHT22;25866;52.420;10.640;2022-10-14T07:55:48;13.50;99.90
40151;DHT22;25866;52.420;10.640;2022-10-14T07:58:21;13.60;99.90
40151;DHT22;25866;52.420;10.640;2022-10-14T08:00:48;13.60;99.90
40151;DHT22;25866;52.420;10.640;2022-10-14T08:03:16;13.50;99.90
40151;DHT22;25866;52.420;10.640;2022-10-14T08:05:42;13.50;99.90
40151;DHT22;25866;52.420;10.640;2022-10-14T08:08:08;13.50;99.90
40151;DHT22;25866;52.420;10.640;2022-10-14T08:10:34;13.50;99.90
40151;DHT22;25866;52.420;10.640;2022-10-14T08:13:00;13.60;99.90
40151;DHT22;25866;52.420;10.640;2022-10-14T08:15:26;13.60;99.90
40151;DHT22;25866;52.420;10.640;2022-10-14T08:17:55;13.60;99.90
40151;DHT22;25866;52.420;10.640;2022-10-14T08:20:20;13.70;99.90
40151;DHT22;25866;52.420;10.640;2022-10-14T08:22:46;13.70;99.90
40151;DHT22;25866;52.420;10.640;2022-10-14T08:25:12;13.70;99.90
40151;DHT22;25866;52.420;10.640;2022-10-14T08:27:38;13.80;99.90
40151;DHT22;25866;52.420;10.640;2022-10-14T08:30:04;13.80;99.90
40151;DHT22;25866;52.420;10.640;2022-10-14T08:32:30;13.90;99.90
40151;DHT22;25866;52.420;10.640;2022-10-14T08:34:56;13.90;99.90
40151;DHT22;25866;52.420;10.640;2022-10-14T08:37:22;13.90;99.90
40151;DHT22;25866;52.420;10.640;2022-10-14T08:39:48;13.90;99.90
40151;DHT22;25866;52.420;10.640;2022-10-14T08:45:31;14.00;99.90
40151;DHT22;25866;52.420;10.640;2022-10-14T08:47:58;14.00;99.90
40151;DHT22;25866;52.420;10.640;2022-10-14T08:50:37;14.10;99.90
40151;DHT22;25866;52.420;10.640;2022-10-14T08:53:16;14.10;99.90
40151;DHT22;25866;52.420;10.640;2022-10-14T08:55:53;14.20;99.90
40151;DHT22;25866;52.420;10.640;2022-10-14T08:58:44;14.20;99.90
40151;DHT22;25866;52.420;10.640;2022-10-14T09:03:43;14.30;99.90
40151;DHT22;25866;52.420;10.640;2022-10-14T09:06:17;14.40;99.90
40151;DHT22;25866;52.420;10.640;2022-10-14T09:08:46;14.50;99.90
40151;DHT22;25866;52.420;10.640;2022-10-14T09:11:15;14.60;99.90
40151;DHT22;25866;52.420;10.640;2022-10-14T09:13:46;14.70;99.90
40151;DHT22;25866;52.420;10.640;2022-10-14T09:16:33;14.70;99.90
40151;DHT22;25866;52.420;10.640;2022-10-14T09:19:05;14.80;99.90
40151;DHT22;25866;52.420;10.640;2022-10-14T09:21:42;14.90;99.90
40151;DHT22;25866;52.420;10.640;2022-10-14T09:26:49;15.00;99.90
40151;DHT22;25866;52.420;10.640;2022-10-14T09:32:04;15.00;99.90
40151;DHT22;25866;52.420;10.640;2022-10-14T09:34:46;15.00;99.90
40151;DHT22;25866;52.420;10.640;2022-10-14T09:40:28;15.00;99.90
40151;DHT22;25866;52.420;10.640;2022-10-14T09:51:17;15.20;99.90
40151;DHT22;25866;52.420;10.640;2022-10-14T09:53:47;15.30;99.90
40151;DHT22;25866;52.420;10.640;2022-10-14T09:56:14;15.40;99.90
40151;DHT22;25866;52.420;10.640;2022-10-14T09:58:53;15.60;99.90
40151;DHT22;25866;52.420;10.640;2022-10-14T10:01:27;15.70;99.90
40151;DHT22;25866;52.420;10.640;2022-10-14T10:03:54;15.80;99.90
40151;DHT22;25866;52.420;10.640;2022-10-14T10:06:25;15.90;99.90
40151;DHT22;25866;52.420;10.640;2022-10-14T10:11:33;15.80;99.90
40151;DHT22;25866;52.420;10.640;2022-10-14T10:16:45;15.90;99.90
40151;DHT22;25866;52.420;10.640;2022-10-14T10:21:54;16.00;99.90
40151;DHT22;25866;52.420;10.640;2022-10-14T10:24:22;16.10;99.90
40151;DHT22;25866;52.420;10.640;2022-10-14T10:26:49;16.00;99.90
40151;DHT22;25866;52.420;10.640;2022-10-14T10:29:26;16.10;99.90
40151;DHT22;25866;52.420;10.640;2022-10-14T10:35:21;16.00;99.90
40151;DHT22;25866;52.420;10.640;2022-10-14T10:38:22;16.10;99.90
40151;DHT22;25866;52.420;10.640;2022-10-14T10:43:50;15.80;99.90
40151;DHT22;25866;52.420;10.640;2022-10-14T10:53:04;15.70;99.90
40151;DHT22;25866;52.420;10.640;2022-10-14T11:01:20;16.00;99.90
40151;DHT22;25866;52.420;10.640;2022-10-14T11:07:07;16.10;99.90
40151;DHT22;25866;52.420;10.640;2022-10-14T11:16:02;16.20;99.90
40151;DHT22;25866;52.420;10.640;2022-10-14T11:21:50;16.20;99.90
40151;DHT22;25866;52.420;10.640;2022-10-14T11:26:51;16.30;99.90
40151;DHT22;25866;52.420;10.640;2022-10-14T11:38:42;17.10;99.90
40151;DHT22;25866;52.420;10.640;2022-10-14T11:46:42;16.60;99.90
40151;DHT22;25866;52.420;10.640;2022-10-14T11:49:27;16.50;99.90
40151;DHT22;25866;52.420;10.640;2022-10-14T11:52:05;16.40;99.90
40151;DHT22;25866;52.420;10.640;2022-10-14T12:02:48;17.00;99.90
40151;DHT22;25866;52.420;10.640;2022-10-14T12:11:12;17.10;99.90
40151;DHT22;25866;52.420;10.640;2022-10-14T12:13:47;17.50;99.90
40151;DHT22;25866;52.420;10.640;2022-10-14T12:16:19;17.80;99.90
40151;DHT22;25866;52.420;10.640;2022-10-14T12:18:49;18.10;99.90
40151;DHT22;25866;52.420;10.640;2022-10-14T12:21:42;18.10;99.90
40151;DHT22;25866;52.420;10.640;2022-10-14T12:24:13;17.90;99.90
40151;DHT22;25866;52.420;10.640;2022-10-14T12:27:01;17.60;99.90
40151;DHT22;25866;52.420;10.640;2022-10-14T12:29:43;17.70;99.90
40151;DHT22;25866;52.420;10.640;2022-10-14T12:34:42;18.00;99.90
40151;DHT22;25866;52.420;10.640;2022-10-14T12:40:15;17.70;99.90
40151;DHT22;25866;52.420;10.640;2022-10-14T12:42:57;17.60;99.90
40151;DHT22;25866;52.420;10.640;2022-10-14T12:45:26;17.70;99.90
40151;DHT22;25866;52.420;10.640;2022-10-14T12:48:14;17.70;99.90
40151;DHT22;25866;52.420;10.640;2022-10-14T12:50:41;17.70;99.90
40151;DHT22;25866;52.420;10.640;2022-10-14T12:53:25;17.60;99.90
40151;DHT22;25866;52.420;10.640;2022-10-14T12:55:57;17.50;99.90
40151;DHT22;25866;52.420;10.640;2022-10-14T12:58:59;17.50;99.90
40151;DHT22;25866;52.420;10.640;2022-10-14T13:01:26;17.50;99.90
40151;DHT22;25866;52.420;10.640;2022-10-14T13:06:37;17.40;99.90
40151;DHT22;25866;52.420;10.640;2022-10-14T13:14:27;17.40;99.90
40151;DHT22;25866;52.420;10.640;2022-10-14T13:17:27;17.50;99.90
40151;DHT22;25866;52.420;10.640;2022-10-14T13:19:53;17.50;99.90
40151;DHT22;25866;52.420;10.640;2022-10-14T13:25:16;17.50;99.90
40151;DHT22;25866;52.420;10.640;2022-10-14T13:28:02;17.50;99.90
40151;DHT22;25866;52.420;10.640;2022-10-14T13:30:52;17.50;99.90
40151;DHT22;25866;52.420;10.640;2022-10-14T13:33:37;17.40;99.90
40151;DHT22;25866;52.420;10.640;2022-10-14T13:36:35;17.40;99.90
40151;DHT22;25866;52.420;10.640;2022-10-14T13:39:02;17.30;99.90
40151;DHT22;25866;52.420;10.640;2022-10-14T13:41:29;17.30;99.90
40151;DHT22;25866;52.420;10.640;2022-10-14T13:43:57;17.20;99.90
40151;DHT22;25866;52.420;10.640;2022-10-14T13:46:31;17.20;99.90
40151;DHT22;25866;52.420;10.640;2022-10-14T13:49:02;17.00;99.90
40151;DHT22;25866;52.420;10.640;2022-10-14T13:51:43;17.00;99.90
40151;DHT22;25866;52.420;10.640;2022-10-14T13:54:19;16.90;99.90
40151;DHT22;25866;52.420;10.640;2022-10-14T13:57:09;16.80;99.90
40151;DHT22;25866;52.420;10.640;2022-10-14T13:59:39;16.90;99.90
40151;DHT22;25866;52.420;10.640;2022-10-14T14:02:43;16.90;99.90
40151;DHT22;25866;52.420;10.640;2022-10-14T14:05:02;16.80;99.90
40151;DHT22;25866;52.420;10.640;2022-10-14T14:07:34;16.90;99.90
40151;DHT22;25866;52.420;10.640;2022-10-14T14:10:04;16.90;99.90
40151;DHT22;25866;52.420;10.640;2022-10-14T14:12:31;16.90;99.90
40151;DHT22;25866;52.420;10.640;2022-10-14T14:14:58;16.90;99.90
40151;DHT22;25866;52.420;10.640;2022-10-14T14:17:26;16.90;99.90
40151;DHT22;25866;52.420;10.640;2022-10-14T14:19:55;16.90;99.90
40151;DHT22;25866;52.420;10.640;2022-10-14T14:22:27;16.90;99.90
40151;DHT22;25866;52.420;10.640;2022-10-14T14:25:11;16.90;99.90
40151;DHT22;25866;52.420;10.640;2022-10-14T14:27:45;16.90;99.90
40151;DHT22;25866;52.420;10.640;2022-10-14T14:30:31;16.80;99.90
40151;DHT22;25866;52.420;10.640;2022-10-14T14:33:00;16.80;99.90
40151;DHT22;25866;52.420;10.640;2022-10-14T14:35:27;16.90;99.90
40151;DHT22;25866;52.420;10.640;2022-10-14T14:37:53;16.80;99.90
40151;DHT22;25866;52.420;10.640;2022-10-14T14:40:22;16.80;99.90
40151;DHT22;25866;52.420;10.640;2022-10-14T14:42:53;16.70;99.90
40151;DHT22;25866;52.420;10.640;2022-10-14T14:45:22;16.70;99.90
40151;DHT22;25866;52.420;10.640;2022-10-14T14:47:55;16.60;99.90
40151;DHT22;25866;52.420;10.640;2022-10-14T14:50:35;16.60;99.90
40151;DHT22;25866;52.420;10.640;2022-10-14T14:53:17;16.60;99.90
40151;DHT22;25866;52.420;10.640;2022-10-14T14:56:06;16.50;99.90
40151;DHT22;25866;52.420;10.640;2022-10-14T14:58:37;16.50;99.90
40151;DHT22;25866;52.420;10.640;2022-10-14T15:01:04;16.40;99.90
40151;DHT22;25866;52.420;10.640;2022-10-14T15:03:34;16.50;99.90
40151;DHT22;25866;52.420;10.640;2022-10-14T15:06:14;16.40;99.90
40151;DHT22;25866;52.420;10.640;2022-10-14T15:08:41;16.40;99.90
40151;DHT22;25866;52.420;10.640;2022-10-14T15:11:12;16.40;99.90
40151;DHT22;25866;52.420;10.640;2022-10-14T15:16:04;16.30;99.90
40151;DHT22;25866;52.420;10.640;2022-10-14T15:18:30;16.30;99.90
40151;DHT22;25866;52.420;10.640;2022-10-14T15:21:22;16.30;99.90
40151;DHT22;25866;52.420;10.640;2022-10-14T15:29:12;16.20;99.90
40151;DHT22;25866;52.420;10.640;2022-10-14T15:31:40;16.20;99.90
40151;DHT22;25866;52.420;10.640;2022-10-14T15:34:15;16.20;99.90
40151;DHT22;25866;52.420;10.640;2022-10-14T15:36:43;16.10;99.90
40151;DHT22;25866;52.420;10.640;2022-10-14T15:39:11;16.10;99.90
40151;DHT22;25866;52.420;10.640;2022-10-14T15:41:39;16.10;99.90
40151;DHT22;25866;52.420;10.640;2022-10-14T15:44:04;16.10;99.90
40151;DHT22;25866;52.420;10.640;2022-10-14T15:46:30;16.00;99.90
40151;DHT22;25866;52.420;10.640;2022-10-14T15:49:22;16.00;99.90
40151;DHT22;25866;52.420;10.640;2022-10-14T15:51:50;16.00;99.90
40151;DHT22;25866;52.420;10.640;2022-10-14T15:54:16;16.10;99.90
40151;DHT22;25866;52.420;10.640;2022-10-14T15:56:41;16.00;99.90
40151;DHT22;25866;52.420;10.640;2022-10-14T15:59:07;16.00;99.90
40151;DHT22;25866;52.420;10.640;2022-10-14T16:01:35;16.00;99.90
40151;DHT22;25866;52.420;10.640;2022-10-14T16:04:01;16.00;99.90
40151;DHT22;25866;52.420;10.640;2022-10-14T16:06:28;16.00;99.90
40151;DHT22;25866;52.420;10.640;2022-10-14T16:08:57;15.90;99.90
40151;DHT22;25866;52.420;10.640;2022-10-14T16:11:27;15.90;99.90
40151;DHT22;25866;52.420;10.640;2022-10-14T16:13:54;15.90;99.90
40151;DHT22;25866;52.420;10.640;2022-10-14T16:16:28;15.90;99.90
40151;DHT22;25866;52.420;10.640;2022-10-14T16:18:54;15.90;99.90
40151;DHT22;25866;52.420;10.640;2022-10-14T16:21:20;15.80;99.90
40151;DHT22;25866;52.420;10.640;2022-10-14T16:23:46;15.80;99.90
40151;DHT22;25866;52.420;10.640;2022-10-14T16:26:12;15.80;99.90
40151;DHT22;25866;52.420;10.640;2022-10-14T16:28:38;15.80;99.90
40151;DHT22;25866;52.420;10.640;2022-10-14T16:31:04;15.80;99.90
40151;DHT22;25866;52.420;10.640;2022-10-14T16:33:30;15.70;99.90
40151;DHT22;25866;52.420;10.640;2022-10-14T16:35:57;15.70;99.90
40151;DHT22;25866;52.420;10.640;2022-10-14T16:38:24;15.70;99.90
40151;DHT22;25866;52.420;10.640;2022-10-14T16:40:58;15.70;99.90
40151;DHT22;25866;52.420;10.640;2022-10-14T16:43:25;15.70;99.90
40151;DHT22;25866;52.420;10.640;2022-10-14T16:45:51;15.70;99.90
40151;DHT22;25866;52.420;10.640;2022-10-14T16:48:17;15.60;99.90
40151;DHT22;25866;52.420;10.640;2022-10-14T16:50:48;15.60;99.90
40151;DHT22;25866;52.420;10.640;2022-10-14T16:53:14;15.60;99.90
40151;DHT22;25866;52.420;10.640;2022-10-14T16:55:58;15.60;99.90
40151;DHT22;25866;52.420;10.640;2022-10-14T16:58:24;15.60;99.90
40151;DHT22;25866;52.420;10.640;2022-10-14T17:00:50;15.60;99.90
40151;DHT22;25866;52.420;10.640;2022-10-14T17:03:16;15.50;99.90
40151;DHT22;25866;52.420;10.640;2022-10-14T17:05:42;15.50;99.90
40151;DHT22;25866;52.420;10.640;2022-10-14T17:08:08;15.50;99.90
40151;DHT22;25866;52.420;10.640;2022-10-14T17:10:33;15.50;99.90
40151;DHT22;25866;52.420;10.640;2022-10-14T17:12:59;15.50;99.90
40151;DHT22;25866;52.420;10.640;2022-10-14T17:15:26;15.50;99.90
40151;DHT22;25866;52.420;10.640;2022-10-14T17:17:53;15.50;99.90
40151;DHT22;25866;52.420;10.640;2022-10-14T17:20:18;15.50;99.90
40151;DHT22;25866;52.420;10.640;2022-10-14T17:22:46;15.50;99.90
40151;DHT22;25866;52.420;10.640;2022-10-14T17:25:14;15.50;99.90
40151;DHT22;25866;52.420;10.640;2022-10-14T17:27:40;15.50;99.90
40151;DHT22;25866;52.420;10.640;2022-10-14T17:30:07;15.40;99.90
40151;DHT22;25866;52.420;10.640;2022-10-14T17:32:33;15.40;99.90
40151;DHT22;25866;52.420;10.640;2022-10-14T17:34:59;15.40;99.90
40151;DHT22;25866;52.420;10.640;2022-10-14T17:37:25;15.40;99.90
40151;DHT22;25866;52.420;10.640;2022-10-14T17:39:51;15.40;99.90
40151;DHT22;25866;52.420;10.640;2022-10-14T17:42:16;15.40;99.90
40151;DHT22;25866;52.420;10.640;2022-10-14T17:44:42;15.40;99.90
40151;DHT22;25866;52.420;10.640;2022-10-14T17:47:09;15.40;99.90
40151;DHT22;25866;52.420;10.640;2022-10-14T17:49:35;15.40;99.90
40151;DHT22;25866;52.420;10.640;2022-10-14T17:52:01;15.40;99.90
40151;DHT22;25866;52.420;10.640;2022-10-14T17:54:29;15.40;99.90